Time;durP1;ratioP1;P1;durP2;ratioP2;P2;SDS_P1;SDS_P2;PMS_P1;PMS_P2;Temp;Humidity;BMP_temperature;BMP_pressure;BME280_temperature;BME280_humidity;BME280_pressure;Samples;Min_cycle;Max_cycle;Signal;HPM_P1;HPM_P2
2022/07/11 00:00:51;;;;;;;2.70;2.20;;;;;;;;;;6239474;23;20078;-80
2022/07/11 00:03:17;;;;;;;6.47;2.40;;;;;;;;;;6240935;23;20121;-79
2022/07/11 00:05:43;;;;;;;4.90;2.20;;;;;;;;;;6240947;23;20055;-81
2022/07/11 00:08:09;;;;;;;3.47;2.28;;;;;;;;;;6210126;23;20055;-80
2022/07/11 00:10:35;;;;;;;4.05;2.10;;;;;;;;;;6239636;23;20093;-81
2022/07/11 00:13:01;;;;;;;3.50;2.00;;;;;;;;;;6237188;23;20017;-80
2022/07/11 00:15:27;;;;;;;3.20;1.83;;;;;;;;;;6238310;23;20016;-80
2022/07/11 00:17:53;;;;;;;5.78;2.38;;;;;;;;;;6237998;23;20031;-80
2022/07/11 00:20:19;;;;;;;6.43;2.75;;;;;;;;;;6238642;23;20039;-80
2022/07/11 00:22:45;;;;;;;3.25;2.25;;;;;;;;;;6238554;23;20020;-81
2022/07/11 00:25:12;;;;;;;4.63;2.13;;;;;;;;;;6187287;23;20063;-80
2022/07/11 00:27:38;;;;;;;3.55;2.00;;;;;;;;;;6238907;23;20099;-78
2022/07/11 00:30:05;;;;;;;3.60;2.13;;;;;;;;;;6240417;23;20081;-80
2022/07/11 00:32:31;;;;;;;8.93;2.90;;;;;;;;;;6239236;23;20023;-80
2022/07/11 00:34:57;;;;;;;6.10;3.20;;;;;;;;;;6239238;23;20062;-81
2022/07/11 00:37:23;;;;;;;6.05;3.53;;;;;;;;;;6239776;23;20023;-79
2022/07/11 00:39:49;;;;;;;6.80;4.15;;;;;;;;;;6239137;23;20027;-81
2022/07/11 00:42:18;;;;;;;9.05;3.78;;;;;;;;;;6239503;23;20028;-81
2022/07/11 00:44:45;;;;;;;5.07;3.92;;;;;;;;;;6241733;23;20107;-80
2022/07/11 00:47:11;;;;;;;8.93;4.28;;;;;;;;;;6241161;23;20020;-81
2022/07/11 00:49:37;;;;;;;6.38;4.30;;;;;;;;;;6213424;23;20020;-81
2022/07/11 00:52:04;;;;;;;4.65;3.60;;;;;;;;;;6228792;23;20565;-81
2022/07/11 00:54:30;;;;;;;4.45;3.78;;;;;;;;;;6212672;23;20068;-81
2022/07/11 00:56:56;;;;;;;4.95;3.58;;;;;;;;;;6190500;23;20020;-81
2022/07/11 00:59:22;;;;;;;6.07;3.00;;;;;;;;;;6191508;23;20122;-79
2022/07/11 01:01:48;;;;;;;5.95;3.22;;;;;;;;;;6189503;23;20016;-81
2022/07/11 01:04:14;;;;;;;6.28;3.63;;;;;;;;;;6209503;23;20016;-81
2022/07/11 01:06:43;;;;;;;6.47;3.40;;;;;;;;;;6182938;23;20029;-81
2022/07/11 01:09:10;;;;;;;6.95;3.47;;;;;;;;;;6209180;23;20021;-81
2022/07/11 01:11:36;;;;;;;7.38;2.97;;;;;;;;;;6209457;23;20024;-81
2022/07/11 01:14:02;;;;;;;6.68;3.30;;;;;;;;;;6182713;23;20021;-81
2022/07/11 01:16:28;;;;;;;5.38;3.40;;;;;;;;;;6209680;23;20016;-82
2022/07/11 01:18:55;;;;;;;5.28;3.10;;;;;;;;;;6208993;23;20035;-81
2022/07/11 01:21:24;;;;;;;5.05;3.22;;;;;;;;;;6181665;23;20024;-80
2022/07/11 01:23:50;;;;;;;13.45;3.67;;;;;;;;;;6207442;23;20059;-81
2022/07/11 01:26:17;;;;;;;10.25;3.80;;;;;;;;;;6207163;23;20100;-81
2022/07/11 01:28:43;;;;;;;8.73;4.82;;;;;;;;;;6207609;23;20093;-82
2022/07/11 01:31:09;;;;;;;14.07;5.32;;;;;;;;;;6181088;23;20440;-81
2022/07/11 01:33:35;;;;;;;10.07;5.20;;;;;;;;;;6208644;23;20013;-81
2022/07/11 01:36:02;;;;;;;16.25;5.20;;;;;;;;;;6208874;23;20017;-81
2022/07/11 01:38:28;;;;;;;11.27;5.70;;;;;;;;;;6182453;23;20479;-80
2022/07/11 01:40:54;;;;;;;13.45;6.15;;;;;;;;;;6207589;23;20021;-80
2022/07/11 01:43:20;;;;;;;12.32;6.78;;;;;;;;;;6181994;23;20020;-81
2022/07/11 01:45:46;;;;;;;12.10;6.32;;;;;;;;;;6207845;23;20020;-81
2022/07/11 01:48:12;;;;;;;12.90;6.45;;;;;;;;;;6207897;23;20633;-81
2022/07/11 01:50:38;;;;;;;14.73;5.85;;;;;;;;;;6180631;23;20112;-82
2022/07/11 01:53:04;;;;;;;9.00;5.45;;;;;;;;;;6206297;23;20040;-82
2022/07/11 01:55:30;;;;;;;10.32;5.55;;;;;;;;;;6154858;23;20020;-82
2022/07/11 01:57:56;;;;;;;11.20;5.05;;;;;;;;;;6207228;23;20041;-81
2022/07/11 02:00:22;;;;;;;11.63;5.00;;;;;;;;;;6209324;23;20025;-83
2022/07/11 02:02:49;;;;;;;12.93;4.57;;;;;;;;;;6210236;23;20112;-82
2022/07/11 02:05:15;;;;;;;8.20;4.18;;;;;;;;;;6208818;23;20017;-81
2022/07/11 02:10:29;;;;;;;8.38;4.30;;;;;;;;;;6209455;23;20372;-80
2022/07/11 02:12:58;;;;;;;10.07;3.88;;;;;;;;;;6207903;23;20025;-80
2022/07/11 02:15:24;;;;;;;8.80;3.45;;;;;;;;;;6206912;23;20329;-80
2022/07/11 02:17:51;;;;;;;5.45;3.20;;;;;;;;;;6179230;23;20020;-80
2022/07/11 02:20:18;;;;;;;9.38;3.35;;;;;;;;;;6179019;23;20103;-80
2022/07/11 02:22:44;;;;;;;7.18;3.45;;;;;;;;;;6206610;23;20024;-80
2022/07/11 02:25:22;;;;;;;4.05;3.08;;;;;;;;;;6155345;23;20048;-82
2022/07/11 02:27:49;;;;;;;6.20;2.88;;;;;;;;;;6206928;23;20016;-81
2022/07/11 02:30:16;;;;;;;5.10;2.97;;;;;;;;;;6207363;23;20059;-82
2022/07/11 02:32:42;;;;;;;11.07;3.08;;;;;;;;;;6207353;23;20028;-81
2022/07/11 02:35:08;;;;;;;6.32;3.28;;;;;;;;;;6207275;23;20028;-80
2022/07/11 02:37:34;;;;;;;5.30;3.20;;;;;;;;;;6207231;23;20128;-81
2022/07/11 02:40:00;;;;;;;5.30;3.22;;;;;;;;;;6179888;23;20016;-82
2022/07/11 02:42:26;;;;;;;5.35;3.28;;;;;;;;;;6206961;23;20048;-81
2022/07/11 02:44:53;;;;;;;18.67;2.72;;;;;;;;;;6156971;23;20448;-81
2022/07/11 02:47:25;;;;;;;2.65;1.70;;;;;;;;;;6208028;23;20017;-81
2022/07/11 02:49:51;;;;;;;1.80;1.48;;;;;;;;;;6209128;23;20023;-81
2022/07/11 02:52:20;;;;;;;3.85;1.60;;;;;;;;;;6208571;23;20381;-82
2022/07/11 02:54:46;;;;;;;2.10;1.50;;;;;;;;;;6208611;23;20028;-81
2022/07/11 02:57:12;;;;;;;1.52;1.40;;;;;;;;;;6182869;23;20051;-82
2022/07/11 02:59:38;;;;;;;4.18;1.98;;;;;;;;;;6181256;23;20063;-81
2022/07/11 03:02:10;;;;;;;3.05;1.70;;;;;;;;;;6182964;23;20614;-83
2022/07/11 03:04:36;;;;;;;4.13;1.90;;;;;;;;;;6208212;23;20020;-82
2022/07/11 03:07:02;;;;;;;3.10;1.52;;;;;;;;;;6182414;23;20048;-82
2022/07/11 03:09:28;;;;;;;6.97;2.28;;;;;;;;;;6207688;23;20356;-80
2022/07/11 03:11:54;;;;;;;4.68;1.90;;;;;;;;;;6209978;23;20133;-80
2022/07/11 03:14:20;;;;;;;3.97;1.73;;;;;;;;;;6207809;23;20024;-81
2022/07/11 03:16:46;;;;;;;4.07;1.90;;;;;;;;;;6207535;23;20035;-81
2022/07/11 03:19:13;;;;;;;4.47;1.98;;;;;;;;;;6181266;23;20063;-79
2022/07/11 03:21:39;;;;;;;6.55;1.85;;;;;;;;;;6181520;23;20027;-81
2022/07/11 03:24:11;;;;;;;3.28;2.00;;;;;;;;;;6206777;23;20055;-81
2022/07/11 03:26:43;;;;;;;5.78;2.00;;;;;;;;;;6206974;23;20091;-81
2022/07/11 03:29:09;;;;;;;5.68;2.20;;;;;;;;;;6207031;23;20044;-81
2022/07/11 03:31:35;;;;;;;3.63;2.13;;;;;;;;;;6207009;23;20100;-80
2022/07/11 03:34:01;;;;;;;7.38;2.20;;;;;;;;;;6179847;23;20017;-81
2022/07/11 03:36:28;;;;;;;6.22;2.35;;;;;;;;;;6206250;23;20079;-81
2022/07/11 03:38:54;;;;;;;7.60;2.53;;;;;;;;;;6206727;23;20028;-81
2022/07/11 03:41:20;;;;;;;5.78;2.20;;;;;;;;;;6206870;23;20021;-80
2022/07/11 03:43:46;;;;;;;3.22;1.70;;;;;;;;;;6206566;23;20023;-80
2022/07/11 03:46:12;;;;;;;7.35;1.90;;;;;;;;;;6208151;23;20016;-82
2022/07/11 03:48:38;;;;;;;6.10;2.10;;;;;;;;;;6185964;23;20020;-81
2022/07/11 03:51:05;;;;;;;4.57;1.50;;;;;;;;;;6216010;23;20017;-81
2022/07/11 03:53:31;;;;;;;2.88;1.27;;;;;;;;;;6213307;23;20017;-80
2022/07/11 03:56:10;;;;;;;3.85;1.73;;;;;;;;;;6179962;23;20024;-81
2022/07/11 03:58:36;;;;;;;4.07;1.55;;;;;;;;;;6206229;23;20024;-80
2022/07/11 04:01:02;;;;;;;2.03;1.20;;;;;;;;;;6204009;23;20017;-80
2022/07/11 04:03:28;;;;;;;2.33;1.63;;;;;;;;;;6204336;23;20530;-80
2022/07/11 04:05:55;;;;;;;2.38;1.67;;;;;;;;;;6203834;23;20055;-80
2022/07/11 04:08:21;;;;;;;2.65;1.20;;;;;;;;;;6204863;23;20035;-79
2022/07/11 04:10:47;;;;;;;5.25;1.50;;;;;;;;;;6178531;23;20070;-79
2022/07/11 04:13:13;;;;;;;3.58;1.15;;;;;;;;;;6180844;23;20028;-80
2022/07/11 04:15:51;;;;;;;2.05;1.02;;;;;;;;;;6179729;23;20092;-79
2022/07/11 04:18:17;;;;;;;4.45;1.00;;;;;;;;;;6207427;23;20072;-80
2022/07/11 04:20:43;;;;;;;3.97;0.90;;;;;;;;;;6205623;23;20483;-80
2022/07/11 04:23:09;;;;;;;3.88;0.90;;;;;;;;;;6181067;23;20013;-79
2022/07/11 04:25:35;;;;;;;3.42;0.90;;;;;;;;;;6206390;23;20526;-79
2022/07/11 04:28:02;;;;;;;4.18;1.30;;;;;;;;;;6206109;23;20068;-80
2022/07/11 04:30:28;;;;;;;9.70;1.33;;;;;;;;;;6179044;23;20340;-80
2022/07/11 04:32:55;;;;;;;2.17;1.20;;;;;;;;;;6205647;23;20274;-80
2022/07/11 04:35:23;;;;;;;4.78;1.30;;;;;;;;;;6177893;23;20407;-81
2022/07/11 04:37:49;;;;;;;1.88;1.10;;;;;;;;;;6204632;23;20749;-80
2022/07/11 04:40:24;;;;;;;5.53;1.02;;;;;;;;;;6205048;23;20023;-80
2022/07/11 04:42:51;;;;;;;2.58;1.02;;;;;;;;;;6205373;23;20023;-80
2022/07/11 04:45:18;;;;;;;3.45;1.55;;;;;;;;;;6206271;23;20016;-80
2022/07/11 04:47:44;;;;;;;1.73;0.75;;;;;;;;;;6178197;23;20060;-79
2022/07/11 04:50:11;;;;;;;0.95;0.50;;;;;;;;;;6179642;23;20017;-80
2022/07/11 04:52:37;;;;;;;2.60;0.60;;;;;;;;;;6207304;23;20020;-80
2022/07/11 04:55:03;;;;;;;1.17;0.40;;;;;;;;;;6178745;23;20495;-80
2022/07/11 04:57:30;;;;;;;1.50;0.43;;;;;;;;;;6205003;23;20070;-80
2022/07/11 04:59:56;;;;;;;2.40;0.55;;;;;;;;;;6203111;23;20465;-80
2022/07/11 05:02:22;;;;;;;2.00;0.60;;;;;;;;;;6182468;23;20016;-80
2022/07/11 05:04:48;;;;;;;1.25;0.65;;;;;;;;;;6206074;23;20017;-81
2022/07/11 05:07:26;;;;;;;1.45;0.40;;;;;;;;;;6207758;23;20537;-80
2022/07/11 05:09:52;;;;;;;2.40;0.68;;;;;;;;;;6211443;23;20021;-81
2022/07/11 05:12:20;;;;;;;1.40;0.60;;;;;;;;;;6183477;23;20016;-80
2022/07/11 05:14:46;;;;;;;2.78;0.90;;;;;;;;;;6205363;23;20024;-80
2022/07/11 05:17:12;;;;;;;2.75;0.55;;;;;;;;;;6207589;23;20024;-79
2022/07/11 05:19:38;;;;;;;4.85;0.52;;;;;;;;;;6208622;23;20021;-78
2022/07/11 05:22:04;;;;;;;4.25;0.60;;;;;;;;;;6207908;23;20029;-80
2022/07/11 05:24:43;;;;;;;1.30;0.52;;;;;;;;;;6181369;23;20024;-80
2022/07/11 05:27:43;;;;;;;3.60;0.75;;;;;;;;;;6211864;23;20016;-81
2022/07/11 05:30:09;;;;;;;2.33;0.70;;;;;;;;;;6184667;23;20024;-79
2022/07/11 05:32:38;;;;;;;6.03;0.63;;;;;;;;;;6206660;23;20299;-80
2022/07/11 05:35:05;;;;;;;3.65;0.70;;;;;;;;;;6207102;23;20020;-79
2022/07/11 05:37:37;;;;;;;3.33;0.82;;;;;;;;;;6208938;23;20579;-80
2022/07/11 05:40:09;;;;;;;5.00;0.60;;;;;;;;;;6213365;23;20027;-82
2022/07/11 05:42:45;;;;;;;4.03;0.70;;;;;;;;;;6210230;23;20072;-80
2022/07/11 05:45:12;;;;;;;2.05;0.57;;;;;;;;;;6209020;23;20028;-80
2022/07/11 05:47:38;;;;;;;2.25;0.50;;;;;;;;;;6206772;23;20022;-80
2022/07/11 05:53:11;;;;;;;3.15;0.70;;;;;;;;;;6207931;23;20027;-79
2022/07/11 05:55:37;;;;;;;5.15;1.00;;;;;;;;;;6208239;23;20020;-81
2022/07/11 05:58:03;;;;;;;6.20;0.52;;;;;;;;;;6207628;23;20536;-81
2022/07/11 06:00:35;;;;;;;5.30;0.80;;;;;;;;;;6157417;23;20031;-79
2022/07/11 06:03:01;;;;;;;0.35;0.30;;;;;;;;;;6208818;23;20017;-81
2022/07/11 06:05:28;;;;;;;0.40;0.35;;;;;;;;;;6180453;23;20107;-81
2022/07/11 06:10:41;;;;;;;0.82;0.30;;;;;;;;;;6177999;23;20100;-80
2022/07/11 06:13:08;;;;;;;0.95;0.30;;;;;;;;;;6206285;23;20024;-80
2022/07/11 06:15:44;;;;;;;2.30;0.40;;;;;;;;;;6180150;23;20016;-81
2022/07/11 06:18:10;;;;;;;4.18;0.50;;;;;;;;;;6207438;23;20016;-80
2022/07/11 06:20:36;;;;;;;1.25;0.40;;;;;;;;;;6179858;23;20016;-80
2022/07/11 06:23:08;;;;;;;0.50;0.30;;;;;;;;;;6180061;23;20044;-80
2022/07/11 06:25:34;;;;;;;2.33;0.30;;;;;;;;;;6208976;23;20020;-79
2022/07/11 06:28:01;;;;;;;0.55;0.30;;;;;;;;;;6182163;23;20166;-81
2022/07/11 06:30:27;;;;;;;0.68;0.40;;;;;;;;;;6208438;23;20088;-81
2022/07/11 06:33:00;;;;;;;0.30;0.30;;;;;;;;;;6207484;23;20020;-80
2022/07/11 06:35:26;;;;;;;0.20;0.20;;;;;;;;;;6211420;23;20067;-81
2022/07/11 06:37:53;;;;;;;0.60;0.40;;;;;;;;;;6209142;23;20016;-80
2022/07/11 06:40:19;;;;;;;0.75;0.40;;;;;;;;;;6209389;23;20016;-80
2022/07/11 06:42:45;;;;;;;0.88;0.40;;;;;;;;;;6208899;23;20025;-81
2022/07/11 06:45:12;;;;;;;0.38;0.30;;;;;;;;;;6157062;23;20020;-81
2022/07/11 06:47:38;;;;;;;2.83;0.30;;;;;;;;;;6108921;23;20348;-82
2022/07/11 06:50:04;;;;;;;2.22;0.50;;;;;;;;;;6179633;23;20492;-81
2022/07/11 06:52:30;;;;;;;0.70;0.30;;;;;;;;;;6200023;23;20087;-81
2022/07/11 06:54:58;;;;;;;0.30;0.30;;;;;;;;;;6211621;23;20074;-80
2022/07/11 06:57:24;;;;;;;3.55;0.50;;;;;;;;;;6238738;23;20024;-81
2022/07/11 06:59:50;;;;;;;1.00;0.43;;;;;;;;;;6238644;23;20729;-78
2022/07/11 07:02:16;;;;;;;1.35;0.35;;;;;;;;;;6238745;23;20023;-82
2022/07/11 07:04:42;;;;;;;0.70;0.63;;;;;;;;;;6239015;23;20016;-81
2022/07/11 07:07:09;;;;;;;1.25;0.40;;;;;;;;;;6237232;23;20721;-81
2022/07/11 07:09:35;;;;;;;0.60;0.40;;;;;;;;;;6237809;23;20110;-81
2022/07/11 07:12:01;;;;;;;2.42;0.32;;;;;;;;;;6210545;23;20044;-80
2022/07/11 07:14:27;;;;;;;0.40;0.30;;;;;;;;;;6211343;23;20016;-81
2022/07/11 07:16:53;;;;;;;0.43;0.40;;;;;;;;;;6236547;23;20074;-83
2022/07/11 07:19:20;;;;;;;0.35;0.30;;;;;;;;;;6212073;23;20024;-81
2022/07/11 07:21:47;;;;;;;0.40;0.40;;;;;;;;;;6239367;23;20063;-81
2022/07/11 07:24:13;;;;;;;1.92;0.50;;;;;;;;;;6238521;23;20062;-81
2022/07/11 07:26:39;;;;;;;2.20;0.57;;;;;;;;;;6238812;23;20024;-82
2022/07/11 07:29:06;;;;;;;1.27;0.45;;;;;;;;;;6238636;23;20095;-81
2022/07/11 07:31:32;;;;;;;2.38;0.50;;;;;;;;;;6238595;23;20043;-80
2022/07/11 07:33:58;;;;;;;0.70;0.50;;;;;;;;;;6186825;23;20036;-78
2022/07/11 07:36:24;;;;;;;2.10;0.40;;;;;;;;;;6211356;23;20020;-80
2022/07/11 07:38:50;;;;;;;0.93;0.40;;;;;;;;;;6237666;23;20379;-82
2022/07/11 07:41:16;;;;;;;1.63;0.50;;;;;;;;;;6237850;23;20020;-80
2022/07/11 07:43:43;;;;;;;1.48;0.38;;;;;;;;;;6238803;23;20356;-81
2022/07/11 07:46:10;;;;;;;3.10;0.80;;;;;;;;;;6240084;23;20020;-81
2022/07/11 07:48:36;;;;;;;1.50;0.40;;;;;;;;;;6239465;23;20400;-80
2022/07/11 07:51:02;;;;;;;0.43;0.30;;;;;;;;;;6213116;23;20016;-80
2022/07/11 07:53:28;;;;;;;0.30;0.30;;;;;;;;;;6240223;23;20023;-80
2022/07/11 07:55:54;;;;;;;2.38;0.40;;;;;;;;;;6239718;23;20008;-80
2022/07/11 07:58:20;;;;;;;1.23;0.30;;;;;;;;;;6240109;23;20360;-81
2022/07/11 08:03:31;;;;;;;1.13;0.40;;;;;;;;;;6238762;23;20046;-81
2022/07/11 08:06:10;;;;;;;0.30;0.30;;;;;;;;;;6239483;23;20024;-81
2022/07/11 08:08:37;;;;;;;4.28;0.40;;;;;;;;;;6187610;23;20016;-80
2022/07/11 08:11:03;;;;;;;1.13;0.28;;;;;;;;;;6240551;23;20016;-80
2022/07/11 08:13:32;;;;;;;0.38;0.30;;;;;;;;;;6238352;23;20020;-81
2022/07/11 08:15:58;;;;;;;0.32;0.30;;;;;;;;;;6187641;23;20487;-80
2022/07/11 08:18:26;;;;;;;0.73;0.30;;;;;;;;;;6239896;23;20043;-80
2022/07/11 08:20:58;;;;;;;1.20;0.40;;;;;;;;;;6239826;23;20095;-79
2022/07/11 08:23:24;;;;;;;0.70;0.40;;;;;;;;;;6188342;23;20027;-80
2022/07/11 08:25:50;;;;;;;1.85;0.32;;;;;;;;;;6240154;23;20012;-79
2022/07/11 08:28:17;;;;;;;2.50;0.30;;;;;;;;;;6213137;23;20028;-80
2022/07/11 08:30:43;;;;;;;9.05;5.70;;;;;;;;;;6240182;23;20107;-81
2022/07/11 08:33:09;;;;;;;1.15;0.50;;;;;;;;;;6240448;23;20327;-80
2022/07/11 08:35:36;;;;;;;0.32;0.30;;;;;;;;;;6212600;23;20086;-80
2022/07/11 08:38:02;;;;;;;5.97;0.50;;;;;;;;;;6213396;23;20020;-80
2022/07/11 08:40:28;;;;;;;0.57;0.40;;;;;;;;;;6213179;23;20084;-81
2022/07/11 08:42:56;;;;;;;3.15;0.63;;;;;;;;;;6240138;23;20027;-81
2022/07/11 08:45:23;;;;;;;1.00;0.30;;;;;;;;;;6239503;23;20542;-80
2022/07/11 08:47:50;;;;;;;0.40;0.20;;;;;;;;;;6188621;23;20020;-81
2022/07/11 08:50:16;;;;;;;0.30;0.30;;;;;;;;;;6213978;23;20059;-80
2022/07/11 08:52:42;;;;;;;0.52;0.38;;;;;;;;;;6240513;23;20020;-82
2022/07/11 08:55:08;;;;;;;0.32;0.30;;;;;;;;;;6213901;23;20477;-80
2022/07/11 08:57:35;;;;;;;1.65;0.32;;;;;;;;;;6243696;23;20021;-81
2022/07/11 09:00:03;;;;;;;3.00;0.50;;;;;;;;;;6220560;23;20058;-81
2022/07/11 09:02:30;;;;;;;1.95;0.32;;;;;;;;;;6215592;23;20020;-80
2022/07/11 09:04:56;;;;;;;1.30;0.28;;;;;;;;;;6213120;23;20035;-81
2022/07/11 09:07:23;;;;;;;0.30;0.30;;;;;;;;;;6239697;23;20047;-80
2022/07/11 09:09:49;;;;;;;1.35;0.30;;;;;;;;;;6211494;23;20111;-79
2022/07/11 09:12:16;;;;;;;1.10;0.30;;;;;;;;;;6241989;23;20019;-79
2022/07/11 09:14:54;;;;;;;2.17;0.30;;;;;;;;;;6217702;23;20090;-79
2022/07/11 09:17:26;;;;;;;0.60;0.30;;;;;;;;;;6246959;23;20063;-81
2022/07/11 09:19:52;;;;;;;0.90;0.40;;;;;;;;;;6245067;23;20040;-80
2022/07/11 09:25:21;;;;;;;0.85;0.30;;;;;;;;;;6239807;23;20031;-80
2022/07/11 09:27:47;;;;;;;;;;;;;;;;;;6213845;23;20016;-81
2022/07/11 09:30:22;;;;;;;0.95;0.30;;;;;;;;;;6214154;23;19958;-80
2022/07/11 09:32:54;;;;;;;0.30;0.30;;;;;;;;;;6219393;23;20016;-80
2022/07/11 09:35:20;;;;;;;0.70;0.30;;;;;;;;;;6245587;23;20034;-80
2022/07/11 09:37:48;;;;;;;0.50;0.45;;;;;;;;;;6242910;23;20023;-80
2022/07/11 09:40:14;;;;;;;0.70;0.40;;;;;;;;;;6242048;23;20020;-80
2022/07/11 09:42:51;;;;;;;0.20;0.20;;;;;;;;;;6215312;23;20031;-79
2022/07/11 09:45:17;;;;;;;0.35;0.30;;;;;;;;;;6242384;23;20066;-80
2022/07/11 09:47:47;;;;;;;0.75;0.20;;;;;;;;;;6216302;23;20066;-80
2022/07/11 09:50:13;;;;;;;0.50;0.30;;;;;;;;;;6242184;23;20393;-80
2022/07/11 09:52:42;;;;;;;1.58;0.30;;;;;;;;;;6241585;23;20016;-79
2022/07/11 09:55:08;;;;;;;0.82;0.57;;;;;;;;;;6240862;23;20020;-81
2022/07/11 09:57:35;;;;;;;1.27;0.40;;;;;;;;;;6239840;23;20537;-78
2022/07/11 10:00:03;;;;;;;0.30;0.30;;;;;;;;;;6241038;23;20043;-79
2022/07/11 10:02:29;;;;;;;1.10;0.35;;;;;;;;;;6240780;23;20406;-81
2022/07/11 10:04:56;;;;;;;1.05;0.28;;;;;;;;;;6240924;23;20012;-80
2022/07/11 10:07:22;;;;;;;0.30;0.30;;;;;;;;;;6240215;23;20036;-82
2022/07/11 10:09:48;;;;;;;2.28;0.35;;;;;;;;;;6241825;23;20016;-77
2022/07/11 10:12:14;;;;;;;1.63;0.60;;;;;;;;;;6213811;23;20056;-80
2022/07/11 10:14:40;;;;;;;2.92;0.40;;;;;;;;;;6214389;23;20020;-80
2022/07/11 10:17:10;;;;;;;0.60;0.40;;;;;;;;;;6241153;23;20363;-82
2022/07/11 10:19:52;;;;;;;1.23;0.40;;;;;;;;;;6240781;23;20103;-81
2022/07/11 10:22:18;;;;;;;0.43;0.30;;;;;;;;;;6242018;23;20020;-80
2022/07/11 10:24:52;;;;;;;0.95;0.30;;;;;;;;;;6242956;23;20023;-81
2022/07/11 10:27:28;;;;;;;1.38;0.20;;;;;;;;;;6219800;23;20138;-84
2022/07/11 10:29:54;;;;;;;2.47;0.60;;;;;;;;;;6220071;23;20094;-81
2022/07/11 10:32:21;;;;;;;1.67;0.35;;;;;;;;;;6195219;23;20092;-82
2022/07/11 10:35:05;;;;;;;1.23;0.35;;;;;;;;;;6246963;23;20024;-83
2022/07/11 10:37:46;;;;;;;0.38;0.30;;;;;;;;;;6219309;23;20016;-84
2022/07/11 10:40:12;;;;;;;0.70;0.30;;;;;;;;;;6220794;23;20020;-82
2022/07/11 10:42:39;;;;;;;0.47;0.28;;;;;;;;;;6247413;23;20076;-82
2022/07/11 10:45:10;;;;;;;0.80;0.30;;;;;;;;;;6247615;23;20020;-82
2022/07/11 10:47:42;;;;;;;0.30;0.30;;;;;;;;;;6247945;23;20012;-81
2022/07/11 10:50:08;;;;;;;0.45;0.40;;;;;;;;;;6247752;23;20095;-83
2022/07/11 10:52:36;;;;;;;0.60;0.30;;;;;;;;;;6220303;23;20020;-86
2022/07/11 10:55:20;;;;;;;2.10;0.30;;;;;;;;;;6247152;23;20401;-83
2022/07/11 10:57:46;;;;;;;;;;;;;;;;;;6247157;23;20024;-81
2022/07/11 11:00:14;;;;;;;0.65;0.50;;;;;;;;;;6247636;23;19938;-81
2022/07/11 11:03:00;;;;;;;0.30;0.30;;;;;;;;;;6220785;23;20024;-86
2022/07/11 11:05:49;;;;;;;1.20;0.32;;;;;;;;;;6247879;23;20074;-84
2022/07/11 11:10:59;;;;;;;;;;;;;;;;;;6248213;23;20102;-85
2022/07/11 11:13:26;;;;;;;0.85;0.30;;;;;;;;;;6245846;23;19919;-84
2022/07/11 11:15:55;;;;;;;0.32;0.30;;;;;;;;;;6247360;23;20017;-83
2022/07/11 11:18:26;;;;;;;0.50;0.30;;;;;;;;;;6247302;23;20034;-84
2022/07/11 11:21:01;;;;;;;1.65;0.50;;;;;;;;;;6247821;23;20024;-83
2022/07/11 11:23:39;;;;;;;1.75;0.50;;;;;;;;;;6221132;23;20024;-81
2022/07/11 11:26:11;;;;;;;1.95;0.40;;;;;;;;;;6219633;23;20024;-84
2022/07/11 11:28:38;;;;;;;2.55;0.60;;;;;;;;;;6247545;23;20076;-81
2022/07/11 11:31:05;;;;;;;0.50;0.40;;;;;;;;;;6247757;23;20016;-85
2022/07/11 11:33:33;;;;;;;2.63;0.40;;;;;;;;;;6247814;23;20024;-84
2022/07/11 11:36:06;;;;;;;1.02;0.40;;;;;;;;;;6221583;23;20016;-84
2022/07/11 11:38:36;;;;;;;2.25;0.38;;;;;;;;;;6220841;23;20457;-80
2022/07/11 11:41:02;;;;;;;0.65;0.30;;;;;;;;;;6247992;23;20051;-84
2022/07/11 11:43:28;;;;;;;0.30;0.20;;;;;;;;;;6220540;23;20020;-80
2022/07/11 11:45:55;;;;;;;1.83;0.40;;;;;;;;;;6222025;23;20035;-83
2022/07/11 11:48:32;;;;;;;1.90;0.32;;;;;;;;;;6248592;23;20016;-82
2022/07/11 11:51:05;;;;;;;2.47;0.40;;;;;;;;;;6248500;23;20487;-83
2022/07/11 11:53:41;;;;;;;0.82;0.40;;;;;;;;;;6219051;23;20095;-83
2022/07/11 11:56:21;;;;;;;1.52;0.47;;;;;;;;;;6217839;23;20027;-85
2022/07/11 11:58:48;;;;;;;0.70;0.35;;;;;;;;;;6192458;23;20047;-85
2022/07/11 12:01:15;;;;;;;1.67;0.40;;;;;;;;;;6218753;23;20031;-82
2022/07/11 12:03:52;;;;;;;1.42;0.60;;;;;;;;;;6218665;23;20099;-84
2022/07/11 12:06:21;;;;;;;1.45;0.30;;;;;;;;;;6219550;23;20036;-84
2022/07/11 12:08:47;;;;;;;1.50;0.20;;;;;;;;;;6220276;23;20027;-84
2022/07/11 12:11:14;;;;;;;0.30;0.30;;;;;;;;;;6194323;23;20163;-86
2022/07/11 12:13:41;;;;;;;0.50;0.40;;;;;;;;;;6220299;23;20020;-81
2022/07/11 12:19:02;;;;;;;0.20;0.20;;;;;;;;;;6220199;23;20076;-84
2022/07/11 12:21:29;;;;;;;1.55;0.30;;;;;;;;;;6220114;23;20016;-85
2022/07/11 12:24:02;;;;;;;0.45;0.20;;;;;;;;;;6221252;23;20078;-82
2022/07/11 12:26:29;;;;;;;0.20;0.20;;;;;;;;;;6220117;23;20048;-84
2022/07/11 12:29:22;;;;;;;2.83;0.30;;;19.90;99.90;;;;;;6192815;23;20384;-86
2022/07/11 12:31:49;;;;;;;0.20;0.20;;;;;;;;;;6194103;23;20024;-87
2022/07/11 12:34:19;;;;;;;0.98;0.52;;;;;;;;;;6221161;23;20437;-85
2022/07/11 12:36:46;;;;;;;0.60;0.60;;;;;;;;;;6222356;23;20024;-84
2022/07/11 12:39:25;;;;;;;0.55;0.35;;;;;;;;;;6194401;23;20017;-87
2022/07/11 12:41:52;;;;;;;0.40;0.38;;;;;;;;;;6195540;23;20051;-84
2022/07/11 12:47:07;;;;;;;0.77;0.30;;;;;;;;;;6223585;23;20036;-87
2022/07/11 12:49:33;;;;;;;0.90;0.30;;;;;;;;;;6223912;23;20020;-87
2022/07/11 12:52:00;;;;;;;0.57;0.22;;;;;;;;;;6224346;23;20017;-88
2022/07/11 12:54:31;;;;;;;0.75;0.30;;;;;;;;;;6196552;23;20032;-82
2022/07/11 12:56:57;;;;;;;1.75;0.35;;;;;;;;;;6194813;23;20116;-87
2022/07/11 12:59:25;;;;;;;1.33;0.32;;;;;;;;;;6222317;23;20337;-85
2022/07/11 13:01:58;;;;;;;1.08;0.30;;;;;;;;;;6194890;23;20027;-86
2022/07/11 13:04:24;;;;;;;;;;;;;;;;;;6223328;23;20031;-85
2022/07/11 13:09:35;;;;;;;1.23;0.40;;;;;;;;;;6224800;23;20027;-85
2022/07/11 13:12:01;;;;;;;2.17;0.60;;;;;;;;;;6221604;23;20021;-81
2022/07/11 13:17:12;;;;;;;0.85;0.57;;;;;;;;;;6188123;23;20396;-79
2022/07/11 13:19:38;;;;;;;1.05;0.40;;;;;;;;;;6215456;23;20069;-79
2022/07/11 13:22:04;;;;;;;1.15;0.43;;;;;;;;;;6186805;23;20093;-80
2022/07/11 13:24:30;;;;;;;3.30;0.70;;;;;;;;;;6216398;23;20540;-79
2022/07/11 13:26:57;;;;;;;1.50;0.60;;;;;;;;;;6215420;23;20016;-83
2022/07/11 13:29:23;;;;;;;1.92;0.47;;;;;;;;;;6219186;23;20021;-80
2022/07/11 13:31:49;;;;;;;1.50;0.60;;;;;;;;;;6216641;23;20072;-80
2022/07/11 13:34:15;;;;;;;0.57;0.43;;;;;;;;;;6208917;23;20088;-77
2022/07/11 13:36:41;;;;;;;1.10;1.00;;;;;;;;;;6209064;23;20025;-83
2022/07/11 13:39:08;;;;;;;0.73;0.47;;;;;;;;;;6211850;23;20351;-79
2022/07/11 13:41:35;;;;;;;1.67;0.52;;;;;;;;;;6212415;23;20064;-83
2022/07/11 13:44:01;;;;;;;0.65;0.40;;;;;;;;;;6219176;23;20013;-84
2022/07/11 13:46:34;;;;;;;0.50;0.50;;;;;;;;;;6219546;23;20058;-82
2022/07/11 13:49:00;;;;;;;0.35;0.35;;;;;;;;;;6191779;23;20461;-79
2022/07/11 13:51:26;;;;;;;1.40;0.50;;;;;;;;;;6211764;23;20016;-79
2022/07/11 13:53:52;;;;;;;4.05;0.88;;;;;;;;;;6216164;23;20024;-83
2022/07/11 13:56:18;;;;;;;1.55;0.40;;;;;;;;;;6217152;23;20086;-82
2022/07/11 13:58:44;;;;;;;0.70;0.43;;;;;;;;;;6220231;23;20023;-89
2022/07/11 14:01:11;;;;;;;0.70;0.50;;;;;;;;;;6140907;23;20028;-81
2022/07/11 14:03:37;;;;;;;1.17;0.40;;;;;;;;;;6213409;23;20024;-81
2022/07/11 14:06:04;;;;;;;0.85;0.43;;;;;;;;;;6214165;23;20096;-80
2022/07/11 14:08:32;;;;;;;0.52;0.40;;;;;;;;;;6214741;23;20028;-85
2022/07/11 14:10:58;;;;;;;1.23;0.55;;;;;;;;;;6186061;23;20132;-80
2022/07/11 14:13:24;;;;;;;0.93;0.50;;;;;;;;;;6214130;23;20077;-81
2022/07/11 14:15:50;;;;;;;1.33;0.50;;;;;;;;;;6162176;23;20020;-80
2022/07/11 14:18:16;;;;;;;1.77;0.40;;;;;;;;;;6214058;23;20025;-82
2022/07/11 14:20:42;;;;;;;0.85;0.45;;;;;;;;;;6214311;23;20063;-81
2022/07/11 14:23:08;;;;;;;2.65;0.40;;;;;;;;;;6189278;23;20016;-83
2022/07/11 14:25:35;;;;;;;1.35;0.50;;;;;;;;;;6216418;23;20016;-80
2022/07/11 14:28:01;;;;;;;0.55;0.45;;;;;;;;;;6215031;23;20029;-80
2022/07/11 14:30:27;;;;;;;1.15;0.40;;;;;;;;;;6215639;23;20071;-81
2022/07/11 14:32:53;;;;;;;0.95;0.50;;;;;;;;;;6215144;23;20056;-80
2022/07/11 14:35:19;;;;;;;2.90;0.50;;;;;;;;;;6214359;23;20016;-79
2022/07/11 14:37:45;;;;;;;2.15;0.70;;;;;;;;;;6215742;23;20020;-79
2022/07/11 14:40:12;;;;;;;3.22;0.60;;;;;;;;;;6215696;23;20031;-79
2022/07/11 14:42:38;;;;;;;1.67;0.88;;;;;;;;;;6217305;23;20055;-82
2022/07/11 14:45:06;;;;;;;2.10;0.90;;;;;;;;;;6215882;23;20013;-81
2022/07/11 14:47:32;;;;;;;1.05;0.60;;;;;;;;;;6189416;23;20027;-79
2022/07/11 14:49:58;;;;;;;1.80;0.70;;;;;;;;;;6216463;23;20460;-80
2022/07/11 14:52:24;;;;;;;1.05;0.68;;;;;;;;;;6246453;22;20016;-85
2022/07/11 14:54:50;;;;;;;5.60;1.45;;;;;;;;;;6223881;22;20020;-84
2022/07/11 14:57:17;;;;;;;1.50;0.90;;;;;;;;;;6273738;22;20023;-83
2022/07/11 14:59:43;;;;;;;1.45;1.00;;;;;;;;;;6276049;22;20019;-79
2022/07/11 15:02:09;;;;;;;0.70;0.70;;;;;;;;;;6274622;22;20023;-80
2022/07/11 15:04:35;;;;;;;1.40;1.02;;;;;;;;;;6248506;22;20440;-79
2022/07/11 15:12:30;;;;;;;2.83;1.20;;;;;;;;;;6279017;22;20042;-80
2022/07/11 15:14:57;;;;;;;4.20;1.20;;;;;;;;;;6253117;22;20090;-80
2022/07/11 15:17:23;;;;;;;2.25;1.10;;;;;;;;;;6280213;22;20019;-79
2022/07/11 15:19:50;;;;;;;2.05;0.95;;;;;;;;;;6280005;22;20379;-78